Pagrindinis puslapis
METAR-TAF:

METAR-TAF

Oro uostai :

Marilija, San Paulas, Brazilija

platuma: 22-11-44S, ilguma: 049-55-37W, Aukštis: 647 m

Dabartinis oras

Ataskaita buvo paskelbta 3 valandos ir 18 minutes, ne 19:00 UTC
Vėjas 6 kt iš Pietų
Temperatūra 28°C
Drėgmė 62%
Slėgis 1010 hPa
Matomumas 10 km arba daugiau
Išsisklaidę debesys ne aukštis 4000 ft
Mažai debesys ne aukštis 4500 ft, aukštai iškilę kamuoliniai debesys.

METAR: SBML 121900Z 18006KT 9999 SCT040 FEW045TCU 28/20 Q1010

Laikas: 19:18 (22:18 UTC)


TAF: trūkstamas

Orai ataskaitas ir orų prognozės (METAR, TAF).

turimą stotys yra geltonos ir raudonos taškus žemėlapyje.

Perkelti pele per norėdami pamatyti stoties vardą.

Tada spustelėkite, norėdami matyti oro stebėjimo ir prognozės.

Norėdami pakeisti žemėlapį: spustelėkite ant žalios mygtukų su juodo kryžiaus žemyn,; žalią mygtuką su brūkšneliu, jei norite nutolinti; arba žalių rodyklių gretimoms žemėlapius.


METAR-TAF: